createdAt,value
2018-03-18T00:00:15.482Z,32.00
2018-03-18T00:01:15.496Z,31.70
2018-03-18T00:02:15.548Z,32.60
2018-03-18T00:03:15.514Z,32.00
2018-03-18T00:04:15.564Z,31.50
2018-03-18T00:05:15.541Z,32.10
2018-03-18T00:06:15.558Z,31.80
2018-03-18T00:07:15.573Z,32.90
2018-03-18T00:08:15.669Z,32.90
2018-03-18T00:09:15.585Z,32.00
2018-03-18T00:10:15.594Z,31.30
2018-03-18T00:11:15.613Z,31.60
2018-03-18T00:12:15.621Z,32.00
2018-03-18T00:13:15.649Z,32.00
2018-03-18T00:14:15.695Z,31.80
2018-03-18T00:15:15.660Z,30.20
2018-03-18T00:16:15.684Z,30.60
2018-03-18T00:17:15.699Z,32.30
2018-03-18T00:18:15.849Z,30.90
2018-03-18T00:19:15.714Z,31.90
2018-03-18T00:20:15.763Z,31.60
2018-03-18T00:21:15.736Z,31.60
2018-03-18T00:22:15.750Z,32.10
2018-03-18T00:23:15.749Z,31.40
2018-03-18T00:24:15.869Z,32.00
2018-03-18T00:25:15.780Z,31.50
2018-03-18T00:26:15.812Z,31.30
2018-03-18T00:27:15.811Z,32.70
2018-03-18T00:28:15.827Z,32.00
2018-03-18T00:29:15.933Z,32.30
2018-03-18T00:30:15.838Z,33.10
2018-03-18T00:31:15.849Z,32.30
2018-03-18T00:32:15.872Z,32.20
2018-03-18T00:33:15.884Z,32.40
2018-03-18T00:34:15.873Z,31.30
2018-03-18T00:35:15.921Z,33.30
2018-03-18T00:36:15.956Z,32.30
2018-03-18T00:37:15.901Z,32.40
2018-03-18T00:38:15.942Z,32.30
2018-03-18T00:39:15.926Z,31.80
2018-03-18T00:40:15.956Z,32.00
2018-03-18T00:41:15.979Z,32.40
2018-03-18T00:42:15.965Z,31.00
2018-03-18T00:43:15.998Z,32.50
2018-03-18T00:44:15.990Z,31.30
2018-03-18T00:45:15.996Z,31.80
2018-03-18T00:46:16.350Z,32.20
2018-03-18T00:47:16.855Z,33.10
2018-03-18T00:48:16.070Z,33.60
2018-03-18T00:49:16.038Z,34.30
2018-03-18T00:50:16.067Z,33.30
2018-03-18T00:51:16.069Z,33.40
2018-03-18T00:52:16.115Z,33.00
2018-03-18T00:53:16.093Z,32.30
2018-03-18T00:54:16.103Z,34.00
2018-03-18T00:55:16.114Z,32.10
2018-03-18T00:56:16.122Z,32.30
2018-03-18T00:57:16.151Z,32.60
2018-03-18T00:58:16.143Z,32.60
2018-03-18T00:59:16.187Z,32.90
2018-03-18T01:00:16.168Z,33.20
2018-03-18T01:01:16.334Z,32.80
2018-03-18T01:02:16.216Z,33.50
2018-03-18T01:03:16.198Z,32.90
2018-03-18T01:04:16.248Z,32.90
2018-03-18T01:05:16.807Z,32.70
2018-03-18T01:06:16.234Z,34.00
2018-03-18T01:07:16.295Z,32.30
2018-03-18T01:08:17.251Z,33.60
2018-03-18T01:09:16.284Z,32.70
2018-03-18T01:10:16.282Z,33.40
2018-03-18T01:11:16.287Z,32.90
2018-03-18T01:12:16.302Z,33.80
2018-03-18T01:13:16.351Z,33.40
2018-03-18T01:14:16.334Z,32.90
2018-03-18T01:15:16.347Z,33.50
2018-03-18T01:16:16.353Z,34.20
2018-03-18T01:17:16.358Z,34.30
2018-03-18T01:18:16.376Z,33.10
2018-03-18T01:19:16.412Z,33.30
2018-03-18T01:20:16.387Z,33.50
2018-03-18T01:21:16.404Z,33.60
2018-03-18T01:22:16.411Z,33.10
2018-03-18T01:23:16.423Z,33.20
2018-03-18T01:24:16.476Z,33.00
2018-03-18T01:25:16.449Z,33.90
2018-03-18T01:26:16.453Z,33.50
2018-03-18T01:27:16.470Z,34.60
2018-03-18T01:28:16.475Z,34.10
2018-03-18T01:29:16.505Z,33.40
2018-03-18T01:30:16.502Z,33.70
2018-03-18T01:31:16.510Z,34.30
2018-03-18T01:32:16.525Z,34.00
2018-03-18T01:33:16.554Z,34.40
2018-03-18T01:34:16.581Z,33.80
2018-03-18T01:35:16.558Z,33.90
2018-03-18T01:36:16.564Z,34.80
2018-03-18T01:37:16.575Z,33.30
2018-03-18T01:38:16.585Z,33.90
2018-03-18T01:39:16.631Z,33.00
2018-03-18T01:40:16.612Z,33.70
2018-03-18T01:41:16.624Z,34.90
2018-03-18T01:42:16.633Z,33.80
2018-03-18T01:43:16.645Z,33.90
2018-03-18T01:44:16.674Z,34.80
2018-03-18T01:45:16.695Z,34.10
2018-03-18T01:46:16.681Z,33.20
2018-03-18T01:47:16.691Z,34.30
2018-03-18T01:48:16.702Z,33.80
2018-03-18T01:49:16.730Z,34.20
2018-03-18T01:50:16.725Z,34.60
2018-03-18T01:51:16.732Z,32.90
2018-03-18T01:52:16.744Z,33.90
2018-03-18T01:53:16.800Z,34.30
2018-03-18T01:54:16.769Z,34.60
2018-03-18T01:55:16.779Z,34.20
2018-03-18T01:56:16.794Z,35.00
2018-03-18T01:57:16.807Z,35.30
2018-03-18T01:58:16.828Z,35.00
2018-03-18T01:59:16.825Z,35.00
2018-03-18T02:00:16.833Z,34.10
2018-03-18T02:01:16.843Z,34.80
2018-03-18T02:02:16.856Z,35.40
2018-03-18T02:03:16.957Z,35.40
2018-03-18T02:04:16.919Z,34.90
2018-03-18T02:05:16.895Z,34.90
2018-03-18T02:06:16.904Z,34.00
2018-03-18T02:07:16.922Z,36.00
2018-03-18T02:08:16.926Z,34.30
2018-03-18T02:09:16.959Z,35.00
2018-03-18T02:10:16.950Z,34.30
2018-03-18T02:11:17.000Z,34.50
2018-03-18T02:12:16.972Z,34.90
2018-03-18T02:13:16.984Z,34.90
2018-03-18T02:14:16.989Z,34.30
2018-03-18T02:15:17.003Z,35.30
2018-03-18T02:16:17.021Z,34.50
2018-03-18T02:17:17.063Z,34.30
2018-03-18T02:18:17.050Z,34.00
2018-03-18T02:19:17.045Z,35.10
2018-03-18T02:20:17.072Z,34.60
2018-03-18T02:21:17.071Z,34.70
2018-03-18T02:22:17.113Z,34.20
2018-03-18T02:23:17.093Z,33.80
2018-03-18T02:24:17.118Z,34.00
2018-03-18T02:25:17.113Z,33.80
2018-03-18T02:26:17.123Z,34.40
2018-03-18T02:27:17.144Z,35.00
2018-03-18T02:28:17.164Z,34.00
2018-03-18T02:29:17.163Z,35.50
2018-03-18T02:30:17.175Z,34.90
2018-03-18T02:31:17.191Z,34.10
2018-03-18T02:32:17.196Z,33.70
2018-03-18T02:33:17.240Z,34.60
2018-03-18T02:34:17.220Z,34.80
2018-03-18T02:35:17.754Z,35.40
2018-03-18T02:36:17.241Z,34.70
2018-03-18T02:37:17.250Z,34.40
2018-03-18T02:38:17.299Z,34.10
2018-03-18T02:39:17.276Z,35.30
2018-03-18T02:40:17.315Z,35.20
2018-03-18T02:41:17.374Z,35.20
2018-03-18T02:42:17.304Z,34.60
2018-03-18T02:43:17.330Z,34.30
2018-03-18T02:44:17.330Z,34.70
2018-03-18T02:45:17.382Z,34.40
2018-03-18T02:46:17.383Z,33.70
2018-03-18T02:47:17.365Z,34.10
2018-03-18T02:48:17.379Z,35.00
2018-03-18T02:49:17.422Z,34.20
2018-03-18T02:50:18.259Z,34.80
2018-03-18T02:51:17.424Z,34.30
2018-03-18T02:52:17.463Z,34.20
2018-03-18T02:53:17.435Z,34.20
2018-03-18T02:54:17.448Z,34.20
2018-03-18T02:55:18.303Z,34.00
2018-03-18T02:56:17.471Z,34.50
2018-03-18T02:57:17.558Z,34.80
2018-03-18T02:58:17.503Z,33.80
2018-03-18T02:59:17.499Z,32.90
2018-03-18T03:00:17.570Z,33.50
2018-03-18T03:03:05.470Z,33.60
2018-03-18T03:04:05.149Z,32.60
2018-03-18T03:05:05.159Z,33.40
2018-03-18T03:06:05.725Z,33.30
2018-03-18T03:07:05.214Z,32.00
2018-03-18T03:08:05.199Z,32.40
2018-03-18T03:09:05.266Z,33.40
2018-03-18T03:10:05.238Z,33.20
2018-03-18T03:11:10.517Z,32.70
2018-03-18T03:12:05.249Z,32.90
2018-03-18T03:13:05.278Z,33.40
2018-03-18T03:14:05.374Z,32.10
2018-03-18T03:15:11.810Z,33.80
2018-03-18T03:16:05.414Z,32.30
2018-03-18T03:17:05.311Z,32.70
2018-03-18T03:18:05.295Z,31.60
2018-03-18T03:19:05.414Z,33.20
2018-03-18T03:20:05.392Z,32.50
2018-03-18T03:21:05.791Z,32.50
2018-03-18T03:22:06.268Z,32.90
2018-03-18T03:23:06.340Z,32.50
2018-03-18T03:24:05.396Z,31.80
2018-03-18T03:25:05.393Z,32.50
2018-03-18T03:26:05.392Z,32.30
2018-03-18T03:27:05.420Z,32.70
2018-03-18T03:28:05.430Z,32.00
2018-03-18T03:29:05.419Z,31.40
2018-03-18T03:30:05.439Z,31.40
2018-03-18T03:31:05.465Z,32.10
2018-03-18T03:32:05.499Z,31.70
2018-03-18T03:33:05.502Z,31.70
2018-03-18T03:34:05.488Z,31.00
2018-03-18T03:35:05.490Z,30.80
2018-03-18T03:36:05.510Z,32.40
2018-03-18T03:37:05.535Z,31.40
2018-03-18T03:38:05.562Z,31.00
2018-03-18T03:39:05.548Z,30.20
2018-03-18T03:40:06.220Z,32.40
2018-03-18T03:41:05.558Z,31.80
2018-03-18T03:42:05.569Z,31.50
2018-03-18T03:43:05.620Z,30.10
2018-03-18T03:44:05.589Z,30.80
2018-03-18T03:45:05.604Z,30.60
2018-03-18T03:46:05.613Z,30.90
2018-03-18T03:47:05.630Z,31.00
2018-03-18T03:48:05.670Z,31.50
2018-03-18T03:49:05.646Z,30.50
2018-03-18T03:50:05.675Z,30.50
2018-03-18T03:51:05.672Z,31.30
2018-03-18T03:52:05.680Z,30.40
2018-03-18T03:53:05.717Z,30.80
2018-03-18T03:54:05.709Z,30.00
2018-03-18T03:55:05.716Z,30.10
2018-03-18T03:56:05.725Z,30.20
2018-03-18T03:57:05.768Z,30.80
2018-03-18T03:58:05.755Z,31.00
2018-03-18T03:59:05.759Z,31.00
2018-03-18T04:00:05.770Z,30.20
2018-03-18T04:01:05.792Z,29.50
2018-03-18T04:02:05.814Z,28.90
2018-03-18T04:03:05.806Z,29.00
2018-03-18T04:04:05.838Z,29.50
2018-03-18T04:05:05.887Z,29.80
2018-03-18T04:06:05.848Z,29.50
2018-03-18T04:07:06.032Z,29.60
2018-03-18T04:08:05.881Z,29.30
2018-03-18T04:09:05.887Z,29.60
2018-03-18T04:10:05.895Z,29.50
2018-03-18T04:11:05.894Z,29.50
2018-03-18T04:12:05.915Z,28.90
2018-03-18T04:13:05.963Z,28.80
2018-03-18T04:14:05.926Z,29.70
2018-03-18T04:15:05.934Z,29.20
2018-03-18T04:16:05.959Z,29.30
2018-03-18T04:17:05.974Z,29.00
2018-03-18T04:18:06.015Z,29.50
2018-03-18T04:19:06.009Z,29.40
2018-03-18T04:20:06.025Z,29.50
2018-03-18T04:21:06.011Z,29.00
2018-03-18T04:22:06.085Z,29.20
2018-03-18T04:23:06.269Z,29.80
2018-03-18T04:24:06.049Z,29.50
2018-03-18T04:25:06.049Z,29.60
2018-03-18T04:26:06.094Z,29.00
2018-03-18T04:27:06.062Z,28.20
2018-03-18T04:28:06.090Z,29.40
2018-03-18T04:29:06.732Z,29.00
2018-03-18T04:30:06.113Z,29.20
2018-03-18T04:31:06.125Z,29.90
2018-03-18T04:32:06.116Z,29.30
2018-03-18T04:33:06.141Z,29.50
2018-03-18T04:34:06.158Z,28.70
2018-03-18T04:35:06.158Z,29.20
2018-03-18T04:36:06.159Z,28.90
2018-03-18T04:37:06.173Z,28.70
2018-03-18T04:38:06.722Z,29.40
2018-03-18T04:39:06.232Z,29.20
2018-03-18T04:40:06.210Z,29.20
2018-03-18T04:41:07.814Z,29.60
2018-03-18T04:42:07.219Z,28.90
2018-03-18T04:43:06.407Z,28.60
2018-03-18T04:44:06.299Z,28.60
2018-03-18T04:45:08.271Z,27.70
2018-03-18T04:46:06.376Z,28.00
2018-03-18T04:47:15.277Z,28.90
2018-03-18T04:48:07.276Z,28.50
2018-03-18T04:49:06.377Z,28.40
2018-03-18T04:50:06.357Z,29.00
2018-03-18T04:51:06.359Z,28.70
2018-03-18T04:52:06.420Z,28.60
2018-03-18T04:53:06.383Z,28.30
2018-03-18T04:54:06.392Z,27.10
2018-03-18T04:55:06.377Z,28.50
2018-03-18T04:56:06.374Z,28.70
2018-03-18T04:57:06.384Z,27.70
2018-03-18T04:58:06.392Z,27.90
2018-03-18T04:59:06.425Z,27.80
2018-03-18T05:00:06.422Z,29.00
2018-03-18T05:01:06.464Z,28.40
2018-03-18T05:02:06.447Z,28.10
2018-03-18T05:03:06.453Z,27.30
2018-03-18T05:04:06.462Z,28.00
2018-03-18T05:05:06.469Z,27.60
2018-03-18T05:06:06.517Z,27.50
2018-03-18T05:07:06.491Z,27.80
2018-03-18T05:08:06.500Z,28.20
2018-03-18T05:09:06.513Z,26.40
2018-03-18T05:10:06.524Z,28.20
2018-03-18T05:11:06.559Z,28.10
2018-03-18T05:12:06.574Z,27.50
2018-03-18T05:13:06.551Z,27.90
2018-03-18T05:14:06.563Z,28.00
2018-03-18T05:15:06.574Z,26.80
2018-03-18T05:16:06.591Z,28.80
2018-03-18T05:17:06.621Z,27.40
2018-03-18T05:18:06.608Z,27.80
2018-03-18T05:19:06.616Z,27.80
2018-03-18T05:20:06.630Z,26.30
2018-03-18T05:21:06.646Z,27.50
2018-03-18T05:22:06.660Z,27.30
2018-03-18T05:23:06.673Z,28.40
2018-03-18T05:24:06.673Z,28.00
2018-03-18T05:25:06.684Z,27.70
2018-03-18T05:26:06.690Z,26.80
2018-03-18T05:27:06.702Z,28.40
2018-03-18T05:28:06.732Z,27.60
2018-03-18T05:29:06.721Z,26.50
2018-03-18T05:30:06.748Z,28.40
2018-03-18T05:31:06.744Z,27.70
2018-03-18T05:32:06.755Z,28.20
2018-03-18T05:33:06.800Z,27.50
2018-03-18T05:34:06.775Z,27.60
2018-03-18T05:35:06.791Z,28.30
2018-03-18T05:36:06.797Z,28.10
2018-03-18T05:37:06.809Z,26.90
2018-03-18T05:38:06.857Z,27.20
2018-03-18T05:39:06.830Z,27.80
2018-03-18T05:40:06.837Z,28.00
2018-03-18T05:41:06.850Z,27.90
2018-03-18T05:42:06.859Z,27.60
2018-03-18T05:43:06.893Z,28.90
2018-03-18T05:44:06.880Z,28.10
2018-03-18T05:45:06.894Z,28.80
2018-03-18T05:46:06.901Z,28.10
2018-03-18T05:47:06.917Z,27.40
2018-03-18T05:48:06.956Z,27.90
2018-03-18T05:49:06.933Z,27.80
2018-03-18T05:50:06.941Z,28.90
2018-03-18T05:51:06.960Z,27.80
2018-03-18T05:52:06.964Z,28.70
2018-03-18T05:53:06.995Z,45.10
2018-03-18T05:54:07.001Z,93.00
2018-03-18T05:55:06.989Z,69.30
2018-03-18T05:56:07.011Z,46.00
2018-03-18T05:57:07.018Z,63.60
2018-03-18T05:58:07.049Z,121.30
2018-03-18T05:59:07.046Z,59.90
2018-03-18T06:00:07.048Z,31.20
2018-03-18T06:01:07.065Z,37.70
2018-03-18T06:02:07.070Z,32.30
2018-03-18T06:03:07.095Z,29.50
2018-03-18T06:04:07.108Z,29.50
2018-03-18T06:05:07.097Z,34.80
2018-03-18T06:06:07.130Z,35.40
2018-03-18T06:07:07.118Z,36.70
2018-03-18T06:08:07.135Z,36.50
2018-03-18T06:09:07.140Z,36.90
2018-03-18T06:10:07.188Z,42.10
2018-03-18T06:11:07.163Z,45.00
2018-03-18T06:12:07.176Z,49.10
2018-03-18T06:13:07.188Z,32.30
2018-03-18T06:14:07.197Z,37.50
2018-03-18T06:15:07.216Z,49.80
2018-03-18T06:16:07.234Z,40.20
2018-03-18T06:17:07.230Z,48.00
2018-03-18T06:18:07.234Z,50.60
2018-03-18T06:19:07.247Z,53.20
2018-03-18T06:20:07.276Z,38.90
2018-03-18T06:21:07.270Z,33.10
2018-03-18T06:22:07.274Z,33.90
2018-03-18T06:23:07.290Z,34.80
2018-03-18T06:24:07.300Z,29.70
2018-03-18T06:25:07.336Z,33.30
2018-03-18T06:26:07.322Z,31.90
2018-03-18T06:27:07.333Z,34.10
2018-03-18T06:28:07.344Z,33.70
2018-03-18T06:29:07.353Z,32.50
2018-03-18T06:30:07.401Z,31.90
2018-03-18T06:31:07.371Z,30.20
2018-03-18T06:32:07.387Z,28.80
2018-03-18T06:33:07.400Z,29.30
2018-03-18T06:34:07.405Z,30.50
2018-03-18T06:35:07.429Z,30.40
2018-03-18T06:36:07.454Z,29.90
2018-03-18T06:37:07.453Z,28.90
2018-03-18T06:38:07.451Z,28.70
2018-03-18T06:39:07.463Z,27.60
2018-03-18T06:40:07.478Z,27.50
2018-03-18T06:41:07.479Z,29.10
2018-03-18T06:42:07.516Z,28.10
2018-03-18T06:43:07.540Z,28.00
2018-03-18T06:44:07.511Z,26.80
2018-03-18T06:45:07.527Z,27.90
2018-03-18T06:46:07.535Z,28.00
2018-03-18T06:47:07.549Z,27.70
2018-03-18T06:48:07.602Z,28.60
2018-03-18T06:49:07.565Z,28.60
2018-03-18T06:50:07.575Z,27.40
2018-03-18T06:51:07.582Z,27.30
2018-03-18T06:52:07.600Z,28.30
2018-03-18T06:53:07.651Z,28.30
2018-03-18T06:54:07.627Z,28.30
2018-03-18T06:55:07.632Z,28.20
2018-03-18T06:56:07.641Z,28.30
2018-03-18T06:57:07.659Z,27.20
2018-03-18T06:58:07.682Z,27.70
2018-03-18T06:59:07.712Z,26.80
2018-03-18T07:00:07.687Z,26.40
2018-03-18T07:01:07.695Z,29.20
2018-03-18T07:02:07.703Z,27.70
2018-03-18T07:03:07.715Z,27.70
2018-03-18T07:04:07.749Z,27.40
2018-03-18T07:05:07.736Z,28.40
2018-03-18T07:06:07.747Z,29.10
2018-03-18T07:07:07.792Z,28.90
2018-03-18T07:08:07.764Z,28.60
2018-03-18T07:09:07.780Z,27.30
2018-03-18T07:10:07.793Z,26.40
2018-03-18T07:11:07.803Z,26.70
2018-03-18T07:12:07.830Z,27.30
2018-03-18T07:13:07.832Z,27.20
2018-03-18T07:14:07.853Z,26.90
2018-03-18T07:15:07.851Z,27.50
2018-03-18T07:16:07.868Z,27.40
2018-03-18T07:17:07.890Z,26.10
2018-03-18T07:18:07.885Z,35.20
2018-03-18T07:19:07.888Z,46.10
2018-03-18T07:20:07.907Z,28.70
2018-03-18T07:21:07.937Z,27.50
2018-03-18T07:22:07.921Z,25.60
2018-03-18T07:23:07.941Z,26.10
2018-03-18T07:24:07.978Z,26.70
2018-03-18T07:25:07.967Z,27.10
2018-03-18T07:26:07.962Z,26.80
2018-03-18T07:27:07.984Z,26.70
2018-03-18T07:28:07.983Z,27.60
2018-03-18T07:29:08.013Z,26.40
2018-03-18T07:30:08.005Z,27.10
2018-03-18T07:31:08.014Z,27.60
2018-03-18T07:32:08.021Z,26.90
2018-03-18T07:33:08.087Z,26.10
2018-03-18T07:34:08.063Z,31.50
2018-03-18T07:35:08.081Z,28.00
2018-03-18T07:36:08.070Z,29.00
2018-03-18T07:37:08.091Z,26.40
2018-03-18T07:38:08.203Z,26.60
2018-03-18T07:39:08.142Z,26.20
2018-03-18T07:40:08.110Z,27.20
2018-03-18T07:41:08.123Z,25.70
2018-03-18T07:42:08.181Z,26.70
2018-03-18T07:43:08.142Z,27.10
2018-03-18T07:44:08.179Z,26.30
2018-03-18T07:45:08.158Z,26.00
2018-03-18T07:46:08.172Z,26.90
2018-03-18T07:47:08.185Z,28.00
2018-03-18T07:48:08.195Z,27.10
2018-03-18T07:49:08.214Z,26.40
2018-03-18T07:50:08.258Z,28.30
2018-03-18T07:51:08.227Z,27.70
2018-03-18T07:52:08.241Z,26.50
2018-03-18T07:53:08.250Z,26.00
2018-03-18T07:54:08.262Z,27.60
2018-03-18T07:55:08.305Z,27.70
2018-03-18T07:56:08.277Z,29.60
2018-03-18T07:57:08.296Z,27.10
2018-03-18T07:58:08.307Z,29.40
2018-03-18T07:59:08.310Z,27.90
2018-03-18T08:00:08.330Z,29.30
2018-03-18T08:01:08.371Z,28.10
2018-03-18T08:02:08.346Z,27.60
2018-03-18T08:03:08.352Z,27.10
2018-03-18T08:04:08.369Z,27.20
2018-03-18T08:05:08.384Z,26.80
2018-03-18T08:06:08.394Z,27.50
2018-03-18T08:07:08.419Z,29.30
2018-03-18T08:08:08.409Z,29.00
2018-03-18T08:09:08.425Z,27.10
2018-03-18T08:10:08.434Z,28.70
2018-03-18T08:11:08.442Z,27.30
2018-03-18T08:12:08.458Z,26.90
2018-03-18T08:13:08.502Z,27.30
2018-03-18T08:14:08.504Z,26.30
2018-03-18T08:15:08.488Z,25.40
2018-03-18T08:16:08.499Z,27.40
2018-03-18T08:17:08.509Z,25.80
2018-03-18T08:18:08.535Z,26.10
2018-03-18T08:19:08.524Z,28.00
2018-03-18T08:20:08.536Z,26.90
2018-03-18T08:21:08.575Z,26.20
2018-03-18T08:22:08.559Z,27.60
2018-03-18T08:23:08.571Z,27.00
2018-03-18T08:24:08.582Z,27.40
2018-03-18T08:25:08.632Z,26.30
2018-03-18T08:26:08.603Z,26.50
2018-03-18T08:27:08.614Z,25.90
2018-03-18T08:28:08.622Z,25.30
2018-03-18T08:29:08.637Z,26.60
2018-03-18T08:30:08.652Z,26.90
2018-03-18T08:31:08.672Z,26.40
2018-03-18T08:32:08.670Z,27.30
2018-03-18T08:33:08.728Z,26.70
2018-03-18T08:34:08.696Z,26.50
2018-03-18T08:35:08.698Z,27.70
2018-03-18T08:36:08.710Z,27.70
2018-03-18T08:37:08.725Z,26.90
2018-03-18T08:38:08.730Z,25.60
2018-03-18T08:39:08.759Z,26.50
2018-03-18T08:40:08.790Z,29.50
2018-03-18T08:41:08.766Z,26.10
2018-03-18T08:42:08.772Z,26.20
2018-03-18T08:43:08.786Z,25.90
2018-03-18T08:44:08.794Z,27.20
2018-03-18T08:45:08.813Z,27.90
2018-03-18T08:46:08.844Z,26.70
2018-03-18T08:47:08.830Z,26.50
2018-03-18T08:48:08.838Z,26.10
2018-03-18T08:49:08.851Z,27.60
2018-03-18T08:50:08.866Z,25.30
2018-03-18T08:51:08.874Z,26.90
2018-03-18T08:52:08.903Z,27.30
2018-03-18T08:53:08.895Z,25.70
2018-03-18T08:54:08.905Z,26.90
2018-03-18T08:55:09.725Z,26.70
2018-03-18T08:56:08.923Z,27.10
2018-03-18T08:57:08.977Z,28.10
2018-03-18T08:58:08.945Z,28.10
2018-03-18T08:59:08.954Z,26.60
2018-03-18T09:00:08.969Z,24.60
2018-03-18T09:01:09.672Z,25.10
2018-03-18T09:02:09.017Z,25.80
2018-03-18T09:03:09.003Z,25.50
2018-03-18T09:04:09.014Z,25.80
2018-03-18T09:05:09.055Z,26.30
2018-03-18T09:06:09.038Z,28.50
2018-03-18T09:07:09.044Z,26.20
2018-03-18T09:08:09.056Z,25.50
2018-03-18T09:09:09.071Z,26.70
2018-03-18T09:10:09.138Z,27.40
2018-03-18T09:11:09.089Z,27.40
2018-03-18T09:12:09.099Z,27.60
2018-03-18T09:13:09.110Z,28.80
2018-03-18T09:14:09.116Z,26.60
2018-03-18T09:15:09.171Z,27.70
2018-03-18T09:16:09.146Z,26.60
2018-03-18T09:17:09.155Z,26.30
2018-03-18T09:18:09.164Z,26.90
2018-03-18T09:19:09.175Z,26.30
2018-03-18T09:20:09.193Z,25.50
2018-03-18T09:21:09.270Z,28.40
2018-03-18T09:22:09.244Z,26.60
2018-03-18T09:23:09.219Z,26.90
2018-03-18T09:24:09.229Z,25.40
2018-03-18T09:25:09.234Z,26.70
2018-03-18T09:26:09.247Z,26.50
2018-03-18T09:27:09.264Z,29.10
2018-03-18T09:28:09.304Z,26.50
2018-03-18T09:29:09.282Z,25.10
2018-03-18T09:30:09.291Z,26.40
2018-03-18T09:31:09.304Z,25.80
2018-03-18T09:32:09.319Z,26.40
2018-03-18T09:33:09.358Z,25.50
2018-03-18T09:34:09.392Z,27.60
2018-03-18T09:35:09.350Z,26.10
2018-03-18T09:36:09.360Z,26.90
2018-03-18T09:37:09.394Z,25.70
2018-03-18T09:38:09.647Z,27.70
2018-03-18T09:39:09.701Z,26.40
2018-03-18T09:40:09.688Z,26.80
2018-03-18T09:41:09.697Z,26.20
2018-03-18T09:42:09.425Z,25.20
2018-03-18T09:43:09.621Z,25.70
2018-03-18T09:44:09.945Z,25.80
2018-03-18T09:45:09.658Z,26.90
2018-03-18T09:46:09.579Z,26.00
2018-03-18T09:47:09.644Z,27.00
2018-03-18T09:48:09.576Z,24.80
2018-03-18T09:49:09.525Z,25.50
2018-03-18T09:50:09.720Z,26.50
2018-03-18T09:51:09.538Z,27.20
2018-03-18T09:52:09.552Z,26.30
2018-03-18T09:53:09.598Z,26.90
2018-03-18T09:54:09.817Z,28.70
2018-03-18T09:55:09.647Z,24.60
2018-03-18T09:56:09.742Z,24.80
2018-03-18T09:57:09.741Z,26.20
2018-03-18T09:58:09.649Z,26.90
2018-03-18T09:59:09.676Z,24.30
2018-03-18T10:00:09.670Z,25.80
2018-03-18T10:01:09.687Z,25.80
2018-03-18T10:02:09.669Z,25.10
2018-03-18T10:03:09.685Z,25.30
2018-03-18T10:04:09.725Z,25.80
2018-03-18T10:05:09.864Z,26.00
2018-03-18T10:06:09.802Z,26.80
2018-03-18T10:07:09.888Z,27.60
2018-03-18T10:08:10.881Z,26.00
2018-03-18T10:09:09.900Z,24.60
2018-03-18T10:10:10.135Z,27.80
2018-03-18T10:11:09.862Z,26.50
2018-03-18T10:12:09.773Z,26.00
2018-03-18T10:13:09.761Z,26.20
2018-03-18T10:14:09.833Z,28.90
2018-03-18T10:15:09.782Z,26.90
2018-03-18T10:16:11.026Z,27.20
2018-03-18T10:17:10.054Z,25.60
2018-03-18T10:18:09.814Z,24.20
2018-03-18T10:19:09.844Z,25.80
2018-03-18T10:20:09.845Z,25.00
2018-03-18T10:21:09.853Z,25.30
2018-03-18T10:22:09.857Z,24.60
2018-03-18T10:23:09.882Z,25.20
2018-03-18T10:24:09.988Z,23.90
2018-03-18T10:25:09.985Z,23.30
2018-03-18T10:26:09.901Z,24.50
2018-03-18T10:27:09.930Z,23.30
2018-03-18T10:28:10.167Z,23.70
2018-03-18T10:29:09.933Z,23.90
2018-03-18T10:30:10.124Z,24.20
2018-03-18T10:31:10.040Z,23.70
2018-03-18T10:32:10.000Z,23.00
2018-03-18T10:33:10.010Z,23.90
2018-03-18T10:34:10.022Z,25.60
2018-03-18T10:35:10.034Z,23.50
2018-03-18T10:36:10.083Z,25.80
2018-03-18T10:37:10.032Z,23.20
2018-03-18T10:38:10.028Z,25.70
2018-03-18T10:39:10.043Z,27.10
2018-03-18T10:40:10.102Z,23.40
2018-03-18T10:41:10.189Z,23.80
2018-03-18T10:42:10.099Z,26.50
2018-03-18T10:43:10.105Z,24.90
2018-03-18T10:44:10.098Z,24.80
2018-03-18T10:45:10.111Z,25.60
2018-03-18T10:46:10.120Z,26.80
2018-03-18T10:47:10.212Z,24.90
2018-03-18T10:48:10.180Z,26.20
2018-03-18T10:49:10.157Z,26.90
2018-03-18T10:50:10.168Z,26.20
2018-03-18T10:51:10.173Z,24.50
2018-03-18T10:52:10.205Z,25.60
2018-03-18T10:53:10.213Z,25.00
2018-03-18T10:54:10.224Z,25.90
2018-03-18T10:55:10.245Z,24.50
2018-03-18T10:56:10.231Z,27.70
2018-03-18T10:57:10.239Z,25.10
2018-03-18T10:58:10.274Z,25.90
2018-03-18T10:59:10.289Z,24.00
2018-03-18T11:00:10.278Z,27.50
2018-03-18T11:01:10.291Z,30.30
2018-03-18T11:02:10.805Z,26.40
2018-03-18T11:03:10.308Z,26.20
2018-03-18T11:04:10.338Z,23.90
2018-03-18T11:05:10.330Z,24.20
2018-03-18T11:06:10.343Z,24.90
2018-03-18T11:07:10.357Z,29.00
2018-03-18T11:08:10.364Z,26.00
2018-03-18T11:09:10.421Z,25.10
2018-03-18T11:10:10.454Z,24.60
2018-03-18T11:11:10.395Z,30.20
2018-03-18T11:12:10.487Z,28.40
2018-03-18T11:13:10.418Z,30.50
2018-03-18T11:14:10.458Z,23.80
2018-03-18T11:15:10.494Z,27.40
2018-03-18T11:16:10.481Z,29.30
2018-03-18T11:17:10.466Z,30.50
2018-03-18T11:18:10.470Z,27.10
2018-03-18T11:19:10.499Z,26.80
2018-03-18T11:20:10.495Z,24.70
2018-03-18T11:21:11.957Z,26.50
2018-03-18T11:22:10.537Z,25.20
2018-03-18T11:23:10.529Z,25.70
2018-03-18T11:24:10.542Z,24.90
2018-03-18T11:25:10.555Z,24.70
2018-03-18T11:26:10.594Z,25.30
2018-03-18T11:27:10.579Z,25.60
2018-03-18T11:28:10.585Z,23.30
2018-03-18T11:29:10.598Z,23.90
2018-03-18T11:30:10.660Z,23.70
2018-03-18T11:31:12.344Z,24.10
2018-03-18T11:32:10.645Z,26.40
2018-03-18T11:33:10.633Z,25.80
2018-03-18T11:34:10.686Z,26.00
2018-03-18T11:35:10.657Z,25.60
2018-03-18T11:36:10.673Z,26.70
2018-03-18T11:37:10.675Z,25.20
2018-03-18T11:38:10.689Z,25.80
2018-03-18T11:39:10.723Z,25.90
2018-03-18T11:40:10.739Z,24.80
2018-03-18T11:41:10.720Z,26.40
2018-03-18T11:42:10.747Z,26.20
2018-03-18T11:43:10.768Z,24.00
2018-03-18T11:44:10.758Z,25.80
2018-03-18T11:45:10.765Z,24.20
2018-03-18T11:46:10.776Z,24.50
2018-03-18T11:47:10.794Z,26.20
2018-03-18T11:48:10.853Z,24.90
2018-03-18T11:49:10.809Z,23.20
2018-03-18T11:50:10.816Z,24.40
2018-03-18T11:51:10.830Z,22.90
2018-03-18T11:52:10.844Z,24.20
2018-03-18T11:53:10.881Z,25.80
2018-03-18T11:54:10.870Z,24.80
2018-03-18T11:55:10.873Z,25.50
2018-03-18T11:56:10.902Z,25.20
2018-03-18T11:57:10.903Z,24.70
2018-03-18T11:58:10.915Z,25.40
2018-03-18T11:59:10.939Z,23.70
2018-03-18T12:00:10.933Z,26.00
2018-03-18T12:01:10.996Z,25.40
2018-03-18T12:02:10.952Z,26.00
2018-03-18T12:03:10.970Z,24.70
2018-03-18T12:04:11.027Z,25.30
2018-03-18T12:05:10.999Z,24.20
2018-03-18T12:06:10.998Z,23.60
2018-03-18T12:07:11.002Z,25.20
2018-03-18T12:08:11.025Z,23.90
2018-03-18T12:09:11.070Z,24.80
2018-03-18T12:10:11.040Z,25.80
2018-03-18T12:11:11.062Z,25.70
2018-03-18T12:12:11.063Z,26.10
2018-03-18T12:13:11.121Z,26.20
2018-03-18T12:14:11.129Z,24.90
2018-03-18T12:15:11.982Z,26.00
2018-03-18T12:16:11.146Z,23.80
2018-03-18T12:17:11.118Z,24.50
2018-03-18T12:18:11.122Z,27.00
2018-03-18T12:19:11.163Z,27.40
2018-03-18T12:20:11.155Z,28.90
2018-03-18T12:21:11.157Z,25.60
2018-03-18T12:22:11.180Z,25.60
2018-03-18T12:23:11.187Z,27.00
2018-03-18T12:24:11.214Z,24.60
2018-03-18T12:25:11.205Z,26.30
2018-03-18T12:26:11.232Z,32.50
2018-03-18T12:27:11.220Z,27.40
2018-03-18T12:28:11.233Z,25.60
2018-03-18T12:29:11.243Z,23.10
2018-03-18T12:30:11.260Z,24.00
2018-03-18T12:31:11.298Z,23.60
2018-03-18T12:32:11.323Z,24.20
2018-03-18T12:33:11.292Z,24.60
2018-03-18T12:34:11.303Z,25.00
2018-03-18T12:35:11.310Z,22.90
2018-03-18T12:36:11.326Z,25.10
2018-03-18T12:37:11.334Z,24.40
2018-03-18T12:38:11.396Z,23.80
2018-03-18T12:39:11.426Z,24.40
2018-03-18T12:40:11.364Z,24.40
2018-03-18T12:41:11.376Z,25.90
2018-03-18T12:42:11.383Z,22.10
2018-03-18T12:43:11.430Z,22.90
2018-03-18T12:44:11.406Z,23.60
2018-03-18T12:45:11.430Z,24.30
2018-03-18T12:46:11.427Z,24.60
2018-03-18T12:47:11.435Z,24.10
2018-03-18T12:48:11.486Z,25.40
2018-03-18T12:49:11.465Z,23.20
2018-03-18T12:50:11.478Z,24.80
2018-03-18T12:51:11.487Z,25.00
2018-03-18T12:52:11.494Z,23.70
2018-03-18T12:53:11.524Z,24.70
2018-03-18T12:54:12.032Z,22.80